Prince Pupert, Prince Rupert Airport (CYPR)

NamePrince Rupert Airport
CityPrince Pupert
CountryCanada
ICAOCYPR
IATAYPR
Altitude35 m
CoordinatesGoogle Map
Live Air TrafficLiveATC.net
METARCYPR 210700Z AUTO 09005KT 9SM CLR M00/M01 A3020 RMK SLP231
2019-02-21 07:00:00 Wind: East (90°) 2.57 m/s - Visibility: 14484.06 m - Temperature: -0 °C - Dew point: -1 °C - Humidity: 93.1% - Pressure: 1022.69 hPa
Statistics

The table below shows the detailed information of all flights to/from Prince Pupert, Prince Rupert Airport (CYPR).